Time;durP1;ratioP1;P1;durP2;ratioP2;P2;SDS_P1;SDS_P2;PMS_P1;PMS_P2;Temp;Humidity;BMP_temperature;BMP_pressure;BME280_temperature;BME280_humidity;BME280_pressure;Samples;Min_cycle;Max_cycle;Signal;HPM_P1;HPM_P2
2023/04/25 00:02:10;;;;;;;10.18;3.80;;;;;;;5.81;93.27;101005.38;4987233;28;20034;-68
2023/04/25 00:04:37;;;;;;;11.75;3.35;;;;;;;5.77;93.33;101003.78;4988198;28;20030;-68
2023/04/25 00:07:03;;;;;;;14.60;3.15;;;;;;;5.73;93.18;100999.47;4988232;28;20168;-68
2023/04/25 00:09:28;;;;;;;12.00;4.00;;;;;;;5.69;92.54;101008.66;4977063;28;20398;-68
2023/04/25 00:11:54;;;;;;;13.90;3.58;;;;;;;5.63;92.96;101015.25;4985330;28;20486;-68
2023/04/25 00:14:19;;;;;;;11.95;3.03;;;;;;;5.57;93.33;101010.16;4967978;28;20030;-68
2023/04/25 00:16:45;;;;;;;14.20;4.05;;;;;;;5.53;93.37;101014.84;4971153;28;20042;-68
2023/04/25 00:19:11;;;;;;;12.85;3.67;;;;;;;5.47;93.67;101017.84;4970553;28;20487;-68
2023/04/25 00:21:40;;;;;;;9.52;3.17;;;;;;;5.45;93.74;101025.13;4968919;28;20031;-68
2023/04/25 00:24:08;;;;;;;7.78;2.97;;;;;;;5.44;93.55;101025.19;4970374;28;20104;-68
2023/04/25 00:26:35;;;;;;;9.18;2.72;;;;;;;5.44;93.83;101022.50;4969354;28;20396;-68
2023/04/25 00:29:01;;;;;;;11.15;3.33;;;;;;;5.44;93.72;101022.50;4970487;28;20022;-68
2023/04/25 00:31:26;;;;;;;12.90;3.60;;;;;;;5.42;94.05;101021.72;4969787;28;20051;-68
2023/04/25 00:33:52;;;;;;;9.13;3.42;;;;;;;5.40;94.07;101027.16;4969971;28;20689;-67
2023/04/25 00:36:18;;;;;;;11.23;3.35;;;;;;;5.34;94.47;101014.84;4967445;28;20027;-68
2023/04/25 00:38:43;;;;;;;7.40;2.65;;;;;;;5.31;93.84;101009.59;4972864;28;20513;-68
2023/04/25 00:41:09;;;;;;;8.68;2.90;;;;;;;5.31;93.54;101022.22;4969640;28;20109;-68
2023/04/25 00:43:36;;;;;;;7.47;3.00;;;;;;;5.27;94.08;101008.03;4970416;28;20215;-67
2023/04/25 00:46:02;;;;;;;10.23;2.97;;;;;;;5.25;93.88;101015.28;4968576;28;20490;-68
2023/04/25 00:48:27;;;;;;;8.88;4.18;;;;;;;5.24;94.24;101012.69;4982583;28;20042;-68
2023/04/25 00:50:56;;;;;;;9.23;3.47;;;;;;;5.21;94.05;101018.22;4967583;28;20035;-68
2023/04/25 00:53:24;;;;;;;13.95;3.60;;;;;;;5.18;93.84;101007.59;4967836;28;20041;-68
2023/04/25 00:55:53;;;;;;;16.33;3.50;;;;;;;5.13;94.36;101021.28;4981114;28;20035;-69
2023/04/25 00:58:20;;;;;;;7.45;3.67;;;;;;;5.10;94.23;101018.72;4969797;28;20039;-68
2023/04/25 01:00:47;;;;;;;6.47;2.90;;;;;;;5.05;94.73;101027.03;4969515;28;20169;-68
2023/04/25 01:03:17;;;;;;;9.90;2.83;;;;;;;5.01;95.09;101022.72;4970336;28;20018;-68
2023/04/25 01:05:43;;;;;;;10.60;3.95;;;;;;;4.97;95.23;101023.81;4969972;28;20034;-68
2023/04/25 01:08:09;;;;;;;11.02;3.88;;;;;;;4.94;95.25;101017.66;4967819;28;20201;-68
2023/04/25 01:10:34;;;;;;;12.35;3.75;;;;;;;4.91;96.01;101010.63;4967639;28;20625;-68
2023/04/25 01:12:59;;;;;;;12.23;3.72;;;;;;;4.90;95.74;101019.66;4968719;28;20062;-68
2023/04/25 01:15:25;;;;;;;16.48;4.22;;;;;;;4.89;95.66;101020.56;4967822;28;20094;-67
2023/04/25 01:17:52;;;;;;;11.90;3.75;;;;;;;4.86;95.26;101024.31;4975787;28;20108;-68
2023/04/25 01:20:21;;;;;;;10.68;4.63;;;;;;;4.85;95.97;101024.41;4969026;28;20054;-68
2023/04/25 01:22:46;;;;;;;12.70;3.75;;;;;;;4.82;96.29;101020.00;4968494;28;20031;-68
2023/04/25 01:25:12;;;;;;;20.08;4.82;;;;;;;4.85;96.47;101030.66;4969770;28;20027;-68
2023/04/25 01:27:38;;;;;;;10.95;3.58;;;;;;;4.90;96.12;101029.56;4967658;28;20142;-68
2023/04/25 01:30:05;;;;;;;11.95;3.90;;;;;;;4.95;95.80;101030.22;4966986;28;20137;-68
2023/04/25 01:32:37;;;;;;;16.20;4.15;;;;;;;5.00;96.39;101028.19;4983328;28;20039;-67
2023/04/25 01:35:09;;;;;;;13.10;3.90;;;;;;;5.04;96.73;101030.69;4983714;28;20041;-69
2023/04/25 01:37:36;;;;;;;10.68;3.28;;;;;;;5.05;96.50;101029.72;4985785;28;20133;-68
2023/04/25 01:40:02;;;;;;;14.40;3.75;;;;;;;5.09;96.61;101031.34;4983660;28;20419;-68
2023/04/25 01:42:27;;;;;;;5.85;3.25;;;;;;;5.12;95.98;101036.56;4967549;28;20121;-68
2023/04/25 01:44:53;;;;;;;12.23;3.70;;;;;;;5.15;95.63;101034.69;4967412;28;20165;-68
2023/04/25 01:47:18;;;;;;;12.65;4.07;;;;;;;5.14;95.47;101033.81;4981358;28;20093;-67
2023/04/25 01:49:44;;;;;;;11.88;4.40;;;;;;;5.14;95.91;101032.94;4982189;28;20035;-68
2023/04/25 01:52:10;;;;;;;9.18;4.10;;;;;;;5.16;95.17;101036.44;4968020;28;20045;-68
2023/04/25 01:54:35;;;;;;;11.38;3.50;;;;;;;5.16;95.04;101031.91;4967126;28;20019;-68
2023/04/25 01:57:01;;;;;;;7.10;3.50;;;;;;;5.17;95.63;101041.75;4973958;28;20066;-68
2023/04/25 01:59:27;;;;;;;30.15;5.07;;;;;;;5.16;95.31;101033.72;4983061;28;20157;-68
2023/04/25 02:02:05;;;;;;;17.38;4.50;;;;;;;5.16;95.40;101044.53;4966963;28;20039;-68
2023/04/25 02:04:32;;;;;;;7.93;3.40;;;;;;;5.12;95.19;101041.97;4967293;28;20039;-68
2023/04/25 02:06:58;;;;;;;11.30;4.00;;;;;;;5.10;95.84;101043.00;4965560;28;20054;-68
2023/04/25 02:09:31;;;;;;;11.63;3.67;;;;;;;5.05;95.57;101045.91;4966561;28;20479;-69
2023/04/25 02:11:58;;;;;;;12.48;3.88;;;;;;;5.01;95.20;101055.06;4969890;28;20146;-68
2023/04/25 02:14:33;;;;;;;12.40;3.97;;;;;;;4.97;95.79;101057.97;4966505;28;20043;-68
2023/04/25 02:17:05;;;;;;;10.70;3.50;;;;;;;4.92;95.47;101057.31;4983124;28;20117;-68
2023/04/25 02:19:31;;;;;;;14.55;3.88;;;;;;;4.90;95.60;101061.91;4966214;28;20054;-68
2023/04/25 02:21:56;;;;;;;10.15;3.88;;;;;;;4.88;95.75;101061.09;4976402;28;20343;-68
2023/04/25 02:24:22;;;;;;;11.05;3.63;;;;;;;4.86;94.99;101061.19;4966680;28;20041;-68
2023/04/25 02:26:49;;;;;;;10.80;4.00;;;;;;;4.85;95.06;101065.69;4982493;28;20130;-68
2023/04/25 02:29:15;;;;;;;18.40;4.53;;;;;;;4.82;95.44;101054.16;4966398;28;20082;-68
2023/04/25 02:31:42;;;;;;;11.27;4.80;;;;;;;4.80;95.47;101056.03;4999155;28;20039;-68
2023/04/25 02:34:07;;;;;;;13.32;4.22;;;;;;;4.76;95.37;101060.72;4966390;28;20045;-68
2023/04/25 02:36:35;;;;;;;24.10;4.85;;;;;;;4.72;95.22;101066.31;4964602;28;20043;-68
2023/04/25 02:39:02;;;;;;;11.90;3.58;;;;;;;4.66;95.02;101061.19;4966919;28;20050;-68
2023/04/25 02:41:28;;;;;;;16.38;3.95;;;;;;;4.63;95.83;101061.34;4968740;28;20038;-68
2023/04/25 02:43:54;;;;;;;13.32;4.18;;;;;;;4.57;94.86;101063.34;4966371;28;20562;-67
2023/04/25 02:46:20;;;;;;;16.27;4.38;;;;;;;4.54;95.41;101062.63;4967516;28;20026;-68
2023/04/25 02:48:45;;;;;;;18.83;4.30;;;;;;;4.48;95.67;101066.47;4966721;28;20038;-68
2023/04/25 02:51:11;;;;;;;18.55;4.00;;;;;;;4.45;95.93;101058.50;4965483;28;20097;-67
2023/04/25 02:53:36;;;;;;;15.75;4.63;;;;;;;4.41;95.45;101059.56;4967431;28;20093;-67
2023/04/25 02:56:02;;;;;;;14.02;4.18;;;;;;;4.38;94.91;101064.19;4965713;28;20031;-68
2023/04/25 02:58:27;;;;;;;13.38;5.07;;;;;;;4.34;95.98;101061.66;4967298;28;20039;-68
2023/04/25 03:00:54;;;;;;;9.80;3.95;;;;;;;4.30;95.36;101068.13;4969517;28;20038;-67
2023/04/25 03:03:21;;;;;;;21.92;4.45;;;;;;;4.25;95.43;101061.19;4968777;28;20133;-67
2023/04/25 03:05:50;;;;;;;17.70;4.28;;;;;;;4.20;95.63;101066.78;4983959;28;20029;-68
2023/04/25 03:08:18;;;;;;;17.83;3.95;;;;;;;4.16;95.21;101064.28;4985380;28;20466;-67
2023/04/25 03:10:45;;;;;;;13.50;3.90;;;;;;;4.13;95.96;101067.97;4985350;28;20034;-68
2023/04/25 03:13:11;;;;;;;11.52;4.28;;;;;;;4.06;94.99;101061.09;4985758;28;20117;-67
2023/04/25 03:15:38;;;;;;;9.73;3.80;;;;;;;4.02;95.60;101064.84;4985572;28;20072;-67
2023/04/25 03:18:04;;;;;;;8.60;3.53;;;;;;;4.00;95.72;101069.41;4977107;28;20023;-67
2023/04/25 03:20:29;;;;;;;16.10;4.28;;;;;;;3.95;96.25;101069.59;4965274;28;20121;-67
2023/04/25 03:22:56;;;;;;;12.02;3.90;;;;;;;3.96;96.06;101075.84;4966649;28;20049;-67
2023/04/25 03:25:21;;;;;;;12.88;4.57;;;;;;;3.98;96.00;101076.69;4965525;28;20038;-67
2023/04/25 03:27:47;;;;;;;11.20;3.50;;;;;;;3.98;96.29;101071.31;4978104;28;20043;-67
2023/04/25 03:30:13;;;;;;;14.18;4.00;;;;;;;4.02;96.64;101073.81;4966425;28;20364;-67
2023/04/25 03:32:40;;;;;;;8.32;4.00;;;;;;;4.02;96.98;101072.94;4982346;28;20061;-67
2023/04/25 03:35:06;;;;;;;10.13;3.72;;;;;;;4.05;96.82;101065.56;4966613;28;20455;-67
2023/04/25 03:37:32;;;;;;;10.00;4.18;;;;;;;4.12;97.18;101068.03;4965441;28;20053;-68
2023/04/25 03:39:57;;;;;;;11.55;3.92;;;;;;;4.15;97.09;101066.09;4966715;28;20486;-68
2023/04/25 03:42:28;;;;;;;9.07;3.75;;;;;;;4.17;97.23;101066.88;4975170;28;20027;-67
2023/04/25 03:44:53;;;;;;;11.63;3.92;;;;;;;4.22;97.43;101074.78;4966007;28;20031;-68
2023/04/25 03:47:19;;;;;;;17.30;3.92;;;;;;;4.22;97.93;101064.00;4965453;28;20038;-68
2023/04/25 03:49:45;;;;;;;18.67;4.75;;;;;;;4.25;97.42;101064.75;4979362;28;20038;-67
2023/04/25 03:52:10;;;;;;;18.50;4.25;;;;;;;4.28;96.97;101064.59;4984254;28;20372;-68
2023/04/25 03:54:38;;;;;;;15.63;4.93;;;;;;;4.31;97.33;101066.31;4953553;28;20539;-67
2023/04/25 03:57:16;;;;;;;10.32;4.20;;;;;;;4.34;97.93;101072.44;4965136;28;20031;-67
2023/04/25 03:59:42;;;;;;;12.15;4.10;;;;;;;4.36;97.44;101072.38;4966293;28;20042;-68
2023/04/25 04:02:10;;;;;;;15.25;4.32;;;;;;;4.35;97.43;101071.50;4965898;28;20110;-67
2023/04/25 04:04:37;;;;;;;11.32;3.95;;;;;;;4.38;97.42;101075.84;4975275;28;20114;-67
2023/04/25 04:07:02;;;;;;;15.65;4.10;;;;;;;4.40;97.41;101082.06;4964560;28;20380;-67
2023/04/25 04:09:31;;;;;;;15.57;4.70;;;;;;;4.42;97.59;101095.47;4974317;28;20121;-67
2023/04/25 04:11:58;;;;;;;15.68;4.65;;;;;;;4.42;97.23;101092.75;4985071;28;20117;-68
2023/04/25 04:14:24;;;;;;;11.07;3.53;;;;;;;4.45;97.77;101092.63;4988502;28;20455;-68
2023/04/25 04:16:51;;;;;;;19.55;4.45;;;;;;;4.43;97.39;101098.09;4988252;28;20022;-68
2023/04/25 04:19:16;;;;;;;13.27;4.35;;;;;;;4.46;97.44;101094.38;4969768;28;20065;-68
2023/04/25 04:21:48;;;;;;;19.70;4.83;;;;;;;4.51;97.60;101103.16;4967794;28;20041;-68
2023/04/25 04:24:14;;;;;;;19.40;5.35;;;;;;;4.52;97.11;101103.09;4983627;28;20371;-68
2023/04/25 04:27:00;;;;;;;12.77;3.97;;;;;;;4.55;96.28;101100.25;4987439;28;20042;-68
2023/04/25 04:29:50;;;;;;;14.60;4.32;;;;;;;4.57;96.24;101101.09;4970086;28;20089;-67
2023/04/25 04:32:25;;;;;;;12.45;4.05;;;;;;;4.60;96.54;101102.75;4972119;28;20034;-68
2023/04/25 04:34:52;;;;;;;18.85;3.83;;;;;;;4.61;96.43;101107.19;4968636;28;20090;-68
2023/04/25 04:37:20;;;;;;;12.50;4.18;;;;;;;4.61;96.10;101105.38;4967416;28;20097;-68
2023/04/25 04:39:46;;;;;;;17.85;5.07;;;;;;;4.63;95.91;101113.41;4968647;28;20351;-68
2023/04/25 04:42:24;;;;;;;17.48;4.47;;;;;;;4.61;95.77;101108.06;4977732;28;20459;-68
2023/04/25 04:45:12;;;;;;;15.65;4.50;;;;;;;4.63;95.65;101115.22;4969561;28;20053;-67
2023/04/25 04:48:06;;;;;;;11.65;3.70;;;;;;;4.62;95.24;101114.34;4967847;28;20048;-67
2023/04/25 04:50:35;;;;;;;18.50;4.53;;;;;;;4.67;95.45;101120.41;4952683;28;20035;-68
2023/04/25 04:53:23;;;;;;;16.35;4.13;;;;;;;4.74;95.08;101119.19;4970861;28;20534;-68
2023/04/25 04:56:09;;;;;;;10.55;3.88;;;;;;;4.83;95.27;101129.56;4968807;28;20046;-67
2023/04/25 04:58:55;;;;;;;15.05;3.47;;;;;;;4.91;95.05;101128.38;4981914;28;20073;-68
2023/04/25 05:01:39;;;;;;;13.18;5.45;;;;;;;4.95;94.67;101129.97;4982086;28;20154;-68
2023/04/25 05:04:16;;;;;;;24.20;4.82;;;;;;;4.99;94.41;101134.25;4974469;28;20051;-68
2023/04/25 05:06:52;;;;;;;16.02;4.43;;;;;;;5.02;94.22;101137.72;4971972;28;20049;-67
2023/04/25 05:09:41;;;;;;;12.38;4.07;;;;;;;5.07;94.78;101148.28;4981292;28;20046;-67
2023/04/25 05:12:21;;;;;;;13.35;3.88;;;;;;;5.09;94.71;101147.28;4959563;28;20077;-67
2023/04/25 05:15:14;;;;;;;11.05;3.97;;;;;;;5.16;94.76;101161.34;4967667;28;20074;-67
2023/04/25 05:17:58;;;;;;;8.93;3.70;;;;;;;5.20;94.60;101167.50;4967361;28;20062;-68
2023/04/25 05:20:32;;;;;;;13.48;3.75;;;;;;;5.19;93.17;101152.28;4977501;28;20062;-67
2023/04/25 05:23:18;;;;;;;10.63;3.67;;;;;;;5.24;93.62;101163.72;4980981;28;20141;-68
2023/04/25 05:26:05;;;;;;;16.33;4.35;;;;;;;5.27;93.27;101163.56;4967965;28;20073;-67
2023/04/25 05:28:36;;;;;;;16.17;3.97;;;;;;;5.29;93.18;101170.66;4967753;28;20058;-68
2023/04/25 05:31:32;;;;;;;12.20;4.05;;;;;;;5.39;93.88;101173.81;4967647;28;20142;-68
2023/04/25 05:34:01;;;;;;;12.00;3.75;;;;;;;5.45;93.39;101170.81;4981776;28;20061;-68
2023/04/25 05:36:38;;;;;;;16.85;4.28;;;;;;;5.54;93.13;101169.53;4981225;28;20127;-68
2023/04/25 05:39:05;;;;;;;12.95;4.00;;;;;;;5.59;92.92;101175.56;4977558;28;20360;-68
2023/04/25 05:41:54;;;;;;;17.85;3.95;;;;;;;5.62;92.75;101176.31;4960691;28;20120;-68
2023/04/25 05:44:42;;;;;;;17.05;3.72;;;;;;;5.71;91.79;101171.44;4988254;28;20037;-68
2023/04/25 05:47:30;;;;;;;8.80;3.83;;;;;;;5.83;92.65;101174.44;4983743;28;20074;-67
2023/04/25 05:50:22;;;;;;;13.20;4.32;;;;;;;5.93;90.63;101191.13;4982213;28;20053;-68
2023/04/25 05:52:53;;;;;;;15.98;4.43;;;;;;;6.02;91.05;101193.38;4985364;28;20129;-68
2023/04/25 05:55:35;;;;;;;10.88;3.72;;;;;;;6.12;90.36;101193.81;4985928;28;20118;-67
2023/04/25 05:58:11;;;;;;;10.45;4.40;;;;;;;6.20;90.91;101193.41;4973980;28;20482;-68
2023/04/25 06:00:36;;;;;;;12.20;4.38;;;;;;;6.26;90.02;101201.25;4985823;28;20077;-68
2023/04/25 06:03:02;;;;;;;10.15;5.40;;;;;;;6.31;91.58;101204.59;4984689;28;20046;-67
2023/04/25 06:05:27;;;;;;;14.30;4.55;;;;;;;6.31;88.54;101213.56;4966858;28;20041;-68
2023/04/25 06:07:53;;;;;;;14.27;3.78;;;;;;;6.33;90.96;101210.78;4966134;28;20041;-68
2023/04/25 06:10:19;;;;;;;11.38;4.35;;;;;;;6.31;87.48;101223.50;4976336;28;20060;-68
2023/04/25 06:12:45;;;;;;;8.27;3.50;;;;;;;6.33;89.09;101218.88;4968364;28;20490;-68
2023/04/25 06:15:12;;;;;;;9.85;3.78;;;;;;;6.32;87.00;101217.16;4978550;28;20169;-68
2023/04/25 06:17:37;;;;;;;12.43;3.40;;;;;;;6.21;83.85;101219.50;4969640;28;20471;-68
2023/04/25 06:20:04;;;;;;;12.73;3.47;;;;;;;6.13;85.43;101223.44;4985056;28;20066;-68
2023/04/25 06:22:29;;;;;;;10.35;2.90;;;;;;;6.19;86.83;101224.09;4985689;28;20026;-68
2023/04/25 06:24:58;;;;;;;17.00;3.88;;;;;;;6.32;84.62;101234.22;4979012;28;20398;-68
2023/04/25 06:27:24;;;;;;;15.35;3.05;;;;;;;6.38;84.22;101217.69;4966024;28;20034;-67
2023/04/25 06:29:50;;;;;;;20.15;3.28;;;;;;;6.65;84.73;101230.81;4966510;28;20073;-68
2023/04/25 06:32:15;;;;;;;10.38;3.08;;;;;;;6.83;84.03;101227.19;4976106;28;20051;-69
2023/04/25 06:34:40;;;;;;;11.93;4.30;;;;;;;6.93;82.84;101224.88;4980853;28;20073;-68
2023/04/25 06:37:06;;;;;;;7.05;2.40;;;;;;;6.81;81.70;101226.41;4984413;28;20406;-68
2023/04/25 06:39:31;;;;;;;10.88;2.60;;;;;;;6.75;83.10;101228.53;4976538;28;20574;-68
2023/04/25 06:41:57;;;;;;;5.53;2.47;;;;;;;6.75;83.07;101229.41;4967561;28;20539;-69
2023/04/25 06:44:57;;;;;;;10.27;2.67;;;;;;;6.78;82.30;101237.38;4960301;28;20153;-68
2023/04/25 06:47:23;;;;;;;11.73;4.60;;;;;;;6.84;79.59;101244.28;4966130;28;20463;-68
2023/04/25 06:49:49;;;;;;;8.65;2.70;;;;;;;6.92;81.18;101250.19;4966719;28;20045;-69
2023/04/25 06:52:15;;;;;;;11.68;2.70;;;;;;;6.82;79.37;101254.31;4981274;28;20150;-68
2023/04/25 06:54:41;;;;;;;6.72;2.47;;;;;;;6.97;80.74;101248.13;4971517;28;20045;-69
2023/04/25 06:57:45;;;;;;;4.65;2.28;;;;;;;7.19;79.34;101249.75;4970419;28;20141;-68
2023/04/25 07:00:30;;;;;;;7.53;2.00;;;;;;;7.33;79.72;101258.88;4981048;28;20061;-68
2023/04/25 07:02:55;;;;;;;10.07;2.63;;;;;;;7.43;78.31;101247.56;4985150;28;20034;-69
2023/04/25 07:05:21;;;;;;;6.40;2.13;;;;;;;7.56;77.04;101246.84;4983776;28;20030;-69
2023/04/25 07:07:47;;;;;;;20.35;4.25;;;;;;;7.51;76.61;101251.63;4982948;28;20023;-69
2023/04/25 07:10:12;;;;;;;6.68;2.22;;;;;;;7.32;73.80;101245.41;4949838;28;20057;-68
2023/04/25 07:12:37;;;;;;;6.20;1.90;;;;;;;7.26;77.13;101248.44;4975787;28;20103;-69
2023/04/25 07:15:05;;;;;;;7.60;2.47;;;;;;;7.35;77.30;101261.50;4965761;28;21017;-69
2023/04/25 07:17:32;;;;;;;11.20;2.17;;;;;;;7.36;76.89;101258.69;4965482;28;20118;-68
2023/04/25 07:19:57;;;;;;;12.40;2.20;;;;;;;7.37;76.01;101260.47;4980553;28;20045;-68
2023/04/25 07:22:23;;;;;;;5.35;1.90;;;;;;;7.44;76.92;101261.00;4984335;28;20030;-68
2023/04/25 07:24:48;;;;;;;5.43;1.85;;;;;;;7.55;74.22;101263.16;4983720;28;20022;-69
2023/04/25 07:27:17;;;;;;;6.03;1.60;;;;;;;7.59;75.39;101276.44;4974148;28;20042;-68
2023/04/25 07:29:57;;;;;;;6.63;1.60;;;;;;;7.53;72.80;101274.06;4967284;28;20058;-68
2023/04/25 07:32:23;;;;;;;4.68;1.40;;;;;;;7.57;71.01;101288.31;4964869;28;20054;-69
2023/04/25 07:34:48;;;;;;;5.15;2.08;;;;;;;7.56;73.59;101283.88;4965938;28;20078;-69
2023/04/25 07:37:14;;;;;;;4.53;1.95;;;;;;;7.65;73.88;101289.66;4964954;28;20031;-69
2023/04/25 07:39:53;;;;;;;8.73;1.83;;;;;;;7.79;75.45;101291.63;4967071;28;20031;-68
2023/04/25 07:42:19;;;;;;;7.60;1.80;;;;;;;7.84;71.29;101305.81;4967329;28;20138;-69
2023/04/25 07:44:45;;;;;;;6.57;1.73;;;;;;;7.92;75.39;101299.97;4966022;28;20031;-70
2023/04/25 07:47:13;;;;;;;5.40;2.10;;;;;;;8.14;71.35;101305.97;4967701;28;20077;-69
2023/04/25 07:49:39;;;;;;;4.45;1.58;;;;;;;8.49;71.56;101302.31;4969575;28;20058;-68
2023/04/25 07:52:07;;;;;;;7.85;1.63;;;;;;;8.93;68.33;101305.16;4969131;28;20234;-69
2023/04/25 07:54:34;;;;;;;9.48;1.75;;;;;;;9.11;66.34;101300.50;4988555;28;20069;-69
2023/04/25 07:57:06;;;;;;;5.95;2.22;;;;;;;9.08;65.97;101303.38;4972475;28;20038;-69
2023/04/25 07:59:33;;;;;;;7.82;2.10;;;;;;;9.20;67.01;101306.25;4972746;28;20038;-69
2023/04/25 08:02:02;;;;;;;8.02;2.47;;;;;;;9.29;67.59;101303.97;4972424;28;20386;-68
2023/04/25 08:04:28;;;;;;;8.73;1.80;;;;;;;9.27;67.40;101314.03;4984284;28;20038;-69
2023/04/25 08:07:03;;;;;;;7.97;1.90;;;;;;;9.37;69.75;101318.84;4967919;28;20038;-69
2023/04/25 08:09:35;;;;;;;13.02;2.38;;;;;;;9.38;67.05;101327.84;4984843;28;20085;-69
2023/04/25 08:12:03;;;;;;;7.18;1.65;;;;;;;9.19;67.13;101338.94;4977301;28;20478;-69
2023/04/25 08:14:35;;;;;;;9.48;2.40;;;;;;;9.08;66.20;101325.97;4988548;28;20058;-69
2023/04/25 08:17:05;;;;;;;5.65;1.83;;;;;;;8.99;69.02;101334.66;4987811;28;20113;-69
2023/04/25 08:19:31;;;;;;;12.90;2.50;;;;;;;9.18;70.59;101332.59;4986529;28;20502;-69
2023/04/25 08:21:57;;;;;;;5.15;1.75;;;;;;;9.31;66.84;101335.47;4968004;28;20053;-69
2023/04/25 08:24:29;;;;;;;11.05;2.00;;;;;;;9.51;66.99;101327.97;4973670;28;20037;-68
2023/04/25 08:26:54;;;;;;;16.85;2.30;;;;;;;9.49;66.72;101338.06;4981145;28;20374;-69
2023/04/25 08:29:23;;;;;;;11.13;2.67;;;;;;;9.43;65.58;101347.47;4968692;28;20121;-69
2023/04/25 08:31:50;;;;;;;10.63;2.40;;;;;;;9.50;65.91;101356.09;4968557;28;20089;-69
2023/04/25 08:34:16;;;;;;;7.95;1.85;;;;;;;9.54;66.37;101355.84;4968401;28;20046;-69
2023/04/25 08:36:47;;;;;;;12.32;2.13;;;;;;;9.76;69.11;101344.56;4967271;28;20078;-69
2023/04/25 08:39:55;;;;;;;6.80;2.00;;;;;;;10.06;67.17;101352.66;4974737;28;20053;-69
2023/04/25 08:42:44;;;;;;;5.80;2.17;;;;;;;10.06;65.51;101359.94;4980370;28;20038;-69
2023/04/25 08:45:10;;;;;;;6.25;1.75;;;;;;;10.25;68.65;101362.41;4967997;28;20039;-69
2023/04/25 08:47:39;;;;;;;3.30;2.10;;;;;;;10.28;65.89;101360.38;4968467;28;20505;-70
2023/04/25 08:50:06;;;;;;;7.57;2.40;;;;;;;10.33;69.62;101363.66;4982752;28;20498;-69
2023/04/25 08:52:37;;;;;;;3.85;1.77;;;;;;;10.52;65.84;101371.53;4967484;28;20150;-69
2023/04/25 08:55:04;;;;;;;10.20;1.80;;;;;;;10.53;65.31;101376.00;4976520;28;20569;-70
2023/04/25 08:57:31;;;;;;;5.63;1.50;;;;;;;10.71;67.07;101382.13;4971715;28;20126;-70
2023/04/25 08:59:57;;;;;;;7.35;1.50;;;;;;;10.75;64.45;101390.97;4967490;28;20238;-70
2023/04/25 09:02:24;;;;;;;12.43;2.08;;;;;;;10.89;64.25;101388.22;4968253;28;20399;-69
2023/04/25 09:04:54;;;;;;;7.97;1.80;;;;;;;10.99;65.81;101394.81;4981839;28;20085;-69
2023/04/25 09:07:21;;;;;;;7.70;1.60;;;;;;;11.13;65.34;101402.06;4986161;28;20138;-70
2023/04/25 09:09:46;;;;;;;9.73;1.67;;;;;;;11.19;61.98;101402.56;4987239;28;20502;-70
2023/04/25 09:12:18;;;;;;;11.98;1.77;;;;;;;11.12;59.71;101416.66;4986776;28;20034;-70
2023/04/25 09:15:01;;;;;;;3.47;1.30;;;;;;;11.12;63.02;101422.13;4987869;28;20030;-69
2023/04/25 09:17:44;;;;;;;6.38;1.55;;;;;;;11.20;59.96;101419.75;4984203;28;20030;-70
2023/04/25 09:20:12;;;;;;;5.57;1.52;;;;;;;11.22;56.46;101421.41;4969034;28;20030;-70
2023/04/25 09:22:38;;;;;;;8.80;1.48;;;;;;;11.42;55.20;101431.00;4966912;28;20045;-70
2023/04/25 09:25:09;;;;;;;5.07;1.23;;;;;;;11.92;62.22;101417.66;4968903;28;20377;-70
2023/04/25 09:27:35;;;;;;;4.60;1.50;;;;;;;12.04;55.30;101430.44;4967433;28;20305;-70
2023/04/25 09:30:08;;;;;;;4.53;1.65;;;;;;;12.13;62.93;101428.94;4967445;28;20046;-70
2023/04/25 09:32:48;;;;;;;6.15;1.88;;;;;;;11.85;55.29;101427.25;4983727;28;20555;-70
2023/04/25 09:35:26;;;;;;;8.82;1.90;;;;;;;11.88;56.21;101419.72;4967597;28;20038;-70
2023/04/25 09:37:52;;;;;;;10.68;2.38;;;;;;;12.06;61.31;101428.47;4966492;28;20082;-70
2023/04/25 09:40:42;;;;;;;4.78;1.83;;;;;;;11.91;57.56;101427.69;4969353;28;20048;-69
2023/04/25 09:43:20;;;;;;;7.03;1.95;;;;;;;11.62;55.13;101429.66;4967499;28;20403;-70
2023/04/25 09:45:47;;;;;;;12.68;2.53;;;;;;;11.30;58.69;101441.81;4966975;28;20038;-70
2023/04/25 09:48:20;;;;;;;8.38;2.35;;;;;;;11.13;56.25;101438.34;4967454;28;20027;-70
2023/04/25 09:51:03;;;;;;;15.45;3.33;;;;;;;11.30;59.72;101436.38;4966270;28;20043;-70
2023/04/25 09:53:29;;;;;;;5.28;1.30;;;;;;;11.05;54.09;101427.09;4966836;28;20049;-70
2023/04/25 09:56:13;;;;;;;3.97;1.48;;;;;;;10.98;51.76;101432.06;4968812;28;20069;-70
2023/04/25 09:58:40;;;;;;;4.90;1.40;;;;;;;11.18;59.36;101436.19;4967154;28;20487;-70
2023/04/25 10:01:10;;;;;;;2.92;1.45;;;;;;;11.42;52.50;101439.16;4967257;28;20050;-70
2023/04/25 10:03:49;;;;;;;4.63;1.33;;;;;;;11.55;57.28;101438.31;4982503;28;20034;-70
2023/04/25 10:06:37;;;;;;;5.20;1.40;;;;;;;11.78;54.85;101442.22;4986096;28;20050;-70
2023/04/25 10:09:03;;;;;;;3.83;2.00;;;;;;;11.93;56.92;101447.53;4985444;28;20120;-71
2023/04/25 10:11:30;;;;;;;2.88;1.27;;;;;;;12.13;53.40;101442.59;4983212;28;20030;-71
2023/04/25 10:13:56;;;;;;;5.70;1.50;;;;;;;12.34;51.21;101440.19;4968284;28;20477;-71
2023/04/25 10:16:21;;;;;;;6.35;1.35;;;;;;;12.35;51.27;101448.25;4968071;28;20043;-70
2023/04/25 10:18:48;;;;;;;3.72;1.33;;;;;;;12.72;52.07;101432.88;4968150;28;20031;-70
2023/04/25 10:21:15;;;;;;;8.35;1.63;;;;;;;12.79;48.03;101435.19;4967646;28;20037;-70
2023/04/25 10:23:42;;;;;;;5.38;1.33;;;;;;;12.93;52.81;101441.38;4967271;28;20109;-70
2023/04/25 10:26:12;;;;;;;5.55;1.88;;;;;;;13.34;48.78;101440.22;4966539;28;20045;-71
2023/04/25 10:29:01;;;;;;;2.70;0.90;;;;;;;13.64;48.57;101445.22;4967723;28;20109;-70
2023/04/25 10:31:27;;;;;;;9.60;1.73;;;;;;;13.39;46.61;101445.34;4968938;28;20062;-70
2023/04/25 10:33:53;;;;;;;7.03;1.13;;;;;;;13.01;44.75;101432.63;4968612;28;20038;-70
2023/04/25 10:36:21;;;;;;;5.25;1.20;;;;;;;12.98;49.54;101444.66;4984551;28;20104;-70
2023/04/25 10:38:48;;;;;;;5.95;1.50;;;;;;;12.98;49.61;101451.97;4981289;28;20049;-71
2023/04/25 10:41:14;;;;;;;2.67;1.08;;;;;;;13.00;49.27;101455.44;4982576;28;20049;-70
2023/04/25 10:43:40;;;;;;;6.88;1.33;;;;;;;13.02;53.17;101454.38;4967762;28;20038;-70
2023/04/25 10:46:22;;;;;;;12.30;1.60;;;;;;;12.96;50.26;101453.91;4967692;28;20443;-71
2023/04/25 10:48:52;;;;;;;5.88;1.60;;;;;;;12.92;52.83;101450.56;4971409;28;20037;-71
2023/04/25 10:51:19;;;;;;;5.57;1.50;;;;;;;12.87;52.87;101455.50;4985854;28;20050;-71
2023/04/25 10:53:45;;;;;;;2.38;1.38;;;;;;;12.41;49.09;101457.91;4985964;28;20033;-72
2023/04/25 10:56:20;;;;;;;3.13;1.10;;;;;;;12.07;52.44;101459.34;4983712;28;20065;-71
2023/04/25 10:58:46;;;;;;;5.32;1.65;;;;;;;11.70;52.79;101451.81;4965867;28;20050;-70
2023/04/25 11:01:19;;;;;;;5.13;1.23;;;;;;;11.64;55.33;101462.25;4968037;28;20042;-70
2023/04/25 11:03:46;;;;;;;2.53;1.10;;;;;;;11.68;54.94;101463.78;4967983;28;20068;-71
2023/04/25 11:06:31;;;;;;;8.80;1.83;;;;;;;11.72;58.03;101466.22;4966833;28;20026;-70
2023/04/25 11:08:57;;;;;;;7.70;1.70;;;;;;;11.64;55.45;101467.69;4967563;28;20047;-70
2023/04/25 11:11:23;;;;;;;6.63;1.63;;;;;;;11.29;53.37;101476.38;4966959;28;20034;-71
2023/04/25 11:13:50;;;;;;;4.80;1.98;;;;;;;10.76;56.73;101468.91;4967292;28;20030;-71
2023/04/25 11:16:16;;;;;;;5.45;1.33;;;;;;;10.26;57.08;101483.78;4967056;28;20042;-70
2023/04/25 11:18:43;;;;;;;4.88;1.55;;;;;;;10.04;58.47;101484.22;4966794;28;20035;-70
2023/04/25 11:21:09;;;;;;;3.53;1.48;;;;;;;10.01;60.29;101492.53;4966339;28;20157;-71
2023/04/25 11:23:34;;;;;;;7.93;1.40;;;;;;;9.84;57.40;101496.25;4966786;28;20033;-70
2023/04/25 11:26:01;;;;;;;5.53;1.20;;;;;;;9.75;56.59;101497.69;4979592;28;20026;-71
2023/04/25 11:28:26;;;;;;;3.85;1.20;;;;;;;9.70;58.78;101497.94;4965824;28;20398;-70
2023/04/25 11:30:52;;;;;;;3.88;1.33;;;;;;;9.87;60.11;101496.94;4966964;28;20051;-70
2023/04/25 11:33:22;;;;;;;4.13;1.20;;;;;;;9.94;56.62;101500.19;4966992;28;20031;-70
2023/04/25 11:35:47;;;;;;;4.20;1.15;;;;;;;9.96;59.58;101498.25;4966107;28;20479;-70
2023/04/25 11:38:13;;;;;;;4.85;1.30;;;;;;;9.96;56.10;101506.41;4967252;28;20084;-70
2023/04/25 11:40:38;;;;;;;5.53;1.48;;;;;;;10.05;57.94;101496.81;4966719;28;20110;-70